06NY weather

Murphy Field
Auburn, New York, United States

Public forecast

Using degrees Fahrenheit for public forecast. Weather courtesy of forecast.io.

METAR (pilot weather report)

Closest report is Cortland County Chase Field, 18.1 nm (33.6 km) SE. Retrieved 2019/07/17 17:35 UTC (3 minutes ago):

KN03 171735Z AUTO 30008KT 258V328 10SM SCT017 SCT026 SCT034 24/21 A2997 RMK AO2

TAF (pilot weather forecast)

Closest forecast is Ithaca Tompkins Regional Airport, 21.1 nm (39.1 km) S. Retrieved 2019/07/17 12:22 UTC (5 hours ago):

TAF KITH 171120Z 1712/1812 18007KT P6SM -SHRA SCT050 BKN090 FM171300 22005KT P6SM BKN050 TEMPO 1716/1720 3SM -TSRA OVC025CB FM172000 VRB03KT 3SM -SHRA BR OVC015 FM180400 VRB03KT 4SM BR OVC009